createdAt,value
2022-08-17T00:00:01.120Z,99013.12
2022-08-17T00:00:13.630Z,99011.88
2022-08-17T00:00:42.758Z,99008.59
2022-08-17T00:00:42.814Z,99017.11
2022-08-17T00:00:49.708Z,99012.19
2022-08-17T00:00:51.705Z,99011.12
2022-08-17T00:01:01.090Z,99006.75
2022-08-17T00:01:11.126Z,99011.62
2022-08-17T00:01:21.116Z,99014.72
2022-08-17T00:01:44.986Z,99012.38
2022-08-17T00:01:52.520Z,99012.19
2022-08-17T00:01:52.654Z,99011.27
2022-08-17T00:02:01.489Z,99013.05
2022-08-17T00:02:21.773Z,99011.68
2022-08-17T00:02:22.464Z,99011.42
2022-08-17T00:02:31.218Z,99009.73
2022-08-17T00:02:41.065Z,99008.66
2022-08-17T00:02:51.156Z,99012.52
2022-08-17T00:03:01.011Z,99010.67
2022-08-17T00:03:11.135Z,99012.52
2022-08-17T00:03:21.073Z,99015.80
2022-08-17T00:03:31.004Z,99014.02
2022-08-17T00:03:41.080Z,99011.09
2022-08-17T00:03:51.069Z,99013.68
2022-08-17T00:04:01.072Z,99013.45
2022-08-17T00:04:11.901Z,99017.40
2022-08-17T00:04:21.014Z,99014.19
2022-08-17T00:04:31.074Z,99016.89
2022-08-17T00:04:41.075Z,99016.03
2022-08-17T00:04:51.038Z,99018.81
2022-08-17T00:05:01.115Z,99019.91
2022-08-17T00:05:11.075Z,99017.71
2022-08-17T00:05:21.129Z,99014.70
2022-08-17T00:05:31.070Z,99018.41
2022-08-17T00:05:41.039Z,99020.59
2022-08-17T00:05:51.051Z,99013.99
2022-08-17T00:06:01.031Z,99020.76
2022-08-17T00:06:11.051Z,99020.92
2022-08-17T00:06:21.001Z,99017.79
2022-08-17T00:06:31.026Z,99015.52
2022-08-17T00:06:41.065Z,99021.48
2022-08-17T00:06:51.013Z,99019.31
2022-08-17T00:07:01.082Z,99021.06
2022-08-17T00:07:11.135Z,99021.22
2022-08-17T00:07:21.054Z,99018.96
2022-08-17T00:07:31.061Z,99020.96
2022-08-17T00:07:41.117Z,99021.15
2022-08-17T00:07:51.228Z,99021.73
2022-08-17T00:08:01.020Z,99019.70
2022-08-17T00:08:11.011Z,99021.72
2022-08-17T00:08:21.033Z,99024.41
2022-08-17T00:08:30.998Z,99021.03
2022-08-17T00:08:41.109Z,99023.55
2022-08-17T00:08:51.066Z,99020.36
2022-08-17T00:09:01.023Z,99019.19
2022-08-17T00:09:11.051Z,99022.05
2022-08-17T00:09:21.092Z,99026.41
2022-08-17T00:09:31.048Z,99021.80
2022-08-17T00:09:41.110Z,99024.74
2022-08-17T00:09:51.065Z,99023.14
2022-08-17T00:10:01.071Z,99023.14
2022-08-17T00:10:11.074Z,99024.83
2022-08-17T00:10:21.014Z,99025.58
2022-08-17T00:10:31.143Z,99023.73
2022-08-17T00:10:41.108Z,99023.56
2022-08-17T00:10:51.044Z,99021.27
2022-08-17T00:11:01.120Z,99025.25
2022-08-17T00:11:11.100Z,99022.38
2022-08-17T00:11:21.001Z,99022.45
2022-08-17T00:11:31.001Z,99023.12
2022-08-17T00:11:41.034Z,99023.45
2022-08-17T00:12:35.495Z,99022.62
2022-08-17T00:12:35.557Z,99023.55
2022-08-17T00:12:41.309Z,99023.64
2022-08-17T00:12:42.084Z,99028.59
2022-08-17T00:12:43.379Z,99022.38
2022-08-17T00:12:44.330Z,99023.47
2022-08-17T00:12:51.077Z,99025.56
2022-08-17T00:13:01.103Z,99022.35
2022-08-17T00:13:11.111Z,99025.30
2022-08-17T00:13:21.015Z,99023.03
2022-08-17T00:13:31.001Z,99028.59
2022-08-17T00:13:41.018Z,99027.39
2022-08-17T00:13:51.124Z,99023.88
2022-08-17T00:14:01.015Z,99026.98
2022-08-17T00:14:11.059Z,99030.88
2022-08-17T00:14:21.052Z,99024.64
2022-08-17T00:14:31.086Z,99027.41
2022-08-17T00:14:41.072Z,99027.75
2022-08-17T00:14:51.054Z,99022.53
2022-08-17T00:15:01.051Z,99026.62
2022-08-17T00:15:11.072Z,99022.77
2022-08-17T00:15:21.037Z,99027.58
2022-08-17T00:15:31.059Z,99024.22
2022-08-17T00:15:41.089Z,99024.55
2022-08-17T00:15:51.077Z,99023.04
2022-08-17T00:16:01.075Z,99025.22
2022-08-17T00:16:11.058Z,99025.22
2022-08-17T00:16:21.004Z,99028.74
2022-08-17T00:16:51.953Z,99022.85
2022-08-17T00:16:56.677Z,99024.55
2022-08-17T00:16:57.341Z,99020.83
2022-08-17T00:17:01.126Z,99021.00
2022-08-17T00:17:11.068Z,99019.91
2022-08-17T00:17:21.071Z,99023.71
2022-08-17T00:17:31.027Z,99019.48
2022-08-17T00:17:41.080Z,99021.19
2022-08-17T00:17:51.026Z,99024.28
2022-08-17T00:18:01.041Z,99024.36
2022-08-17T00:18:58.327Z,99020.59
2022-08-17T00:19:01.059Z,99022.94
2022-08-17T00:19:01.662Z,99023.19
2022-08-17T00:19:06.478Z,99023.45
2022-08-17T00:19:06.618Z,99022.33
2022-08-17T00:19:08.335Z,99022.83
2022-08-17T00:19:11.123Z,99020.32
2022-08-17T00:19:21.118Z,99023.26
2022-08-17T00:19:31.097Z,99024.02
2022-08-17T00:19:41.077Z,99025.37
2022-08-17T00:19:51.032Z,99025.20
2022-08-17T00:20:01.041Z,99022.75
2022-08-17T00:20:11.007Z,99019.45
2022-08-17T00:20:23.446Z,99024.66
2022-08-17T00:20:34.673Z,99022.47
2022-08-17T00:20:41.058Z,99020.45
2022-08-17T00:20:51.119Z,99024.41
2022-08-17T00:21:01.078Z,99024.99
2022-08-17T00:21:11.047Z,99025.92
2022-08-17T00:21:25.347Z,99023.47
2022-08-17T00:21:56.337Z,99026.91
2022-08-17T00:22:29.598Z,99022.80
2022-08-17T00:22:30.964Z,99023.45
2022-08-17T00:22:32.140Z,99027.73
2022-08-17T00:22:32.890Z,99023.64
2022-08-17T00:22:34.399Z,99027.67
2022-08-17T00:22:35.698Z,99026.66
2022-08-17T00:22:41.070Z,99025.13
2022-08-17T00:22:51.214Z,99027.83
2022-08-17T00:23:01.041Z,99027.48
2022-08-17T00:23:11.058Z,99027.65
2022-08-17T00:23:21.106Z,99027.80
2022-08-17T00:23:31.059Z,99027.80
2022-08-17T00:23:47.856Z,99027.80
2022-08-17T00:23:51.044Z,99026.23
2022-08-17T00:24:01.080Z,99029.48
2022-08-17T00:24:11.053Z,99031.66
2022-08-17T00:24:21.084Z,99028.48
2022-08-17T00:24:31.097Z,99031.51
2022-08-17T00:24:41.041Z,99030.31
2022-08-17T00:24:51.091Z,99028.47
2022-08-17T00:25:01.026Z,99028.63
2022-08-17T00:25:11.006Z,99029.96
2022-08-17T00:25:21.091Z,99028.55
2022-08-17T00:25:31.106Z,99026.77
2022-08-17T00:25:41.116Z,99029.38
2022-08-17T00:25:51.034Z,99029.80
2022-08-17T00:26:01.126Z,99028.62
2022-08-17T00:26:11.051Z,99028.62
2022-08-17T00:26:34.622Z,99029.61
2022-08-17T00:26:43.701Z,99027.19
2022-08-17T00:26:43.742Z,99026.16
2022-08-17T00:26:51.055Z,99030.10
2022-08-17T00:27:01.054Z,99030.04
2022-08-17T00:27:11.082Z,99027.33
2022-08-17T00:27:21.052Z,99029.09
2022-08-17T00:27:31.043Z,99027.98
2022-08-17T00:27:41.021Z,99027.50
2022-08-17T00:27:51.076Z,99028.32
2022-08-17T00:28:01.064Z,99028.43
2022-08-17T00:28:11.017Z,99031.94
2022-08-17T00:28:21.066Z,99027.73
2022-08-17T00:28:31.103Z,99027.66
2022-08-17T00:28:41.061Z,99028.24
2022-08-17T00:28:51.078Z,99032.80
2022-08-17T00:29:01.034Z,99031.92
2022-08-17T00:29:11.088Z,99031.75
2022-08-17T00:29:21.033Z,99027.05
2022-08-17T00:29:31.097Z,99027.23
2022-08-17T00:29:41.012Z,99027.55
2022-08-17T00:29:51.126Z,99029.06
2022-08-17T00:30:01.062Z,99027.89
2022-08-17T00:30:11.068Z,99029.58
2022-08-17T00:30:21.011Z,99026.95
2022-08-17T00:30:31.088Z,99026.55
2022-08-17T00:30:52.800Z,99029.91
2022-08-17T00:30:53.487Z,99027.20
2022-08-17T00:31:01.127Z,99023.26
2022-08-17T00:31:11.098Z,99026.29
2022-08-17T00:31:21.122Z,99024.69
2022-08-17T00:31:31.039Z,99029.73
2022-08-17T00:31:41.080Z,99028.20
2022-08-17T00:31:50.999Z,99030.40
2022-08-17T00:32:01.053Z,99028.02
2022-08-17T00:33:12.285Z,99027.95
2022-08-17T00:33:14.381Z,99024.83
2022-08-17T00:33:14.482Z,99026.77
2022-08-17T00:33:15.410Z,99030.55
2022-08-17T00:33:15.641Z,99027.95
2022-08-17T00:33:16.006Z,99029.39
2022-08-17T00:33:16.477Z,99027.36
2022-08-17T00:33:21.066Z,99028.62
2022-08-17T00:33:31.612Z,99027.03
2022-08-17T00:33:41.096Z,99025.41
2022-08-17T00:33:51.094Z,99030.39
2022-08-17T00:34:01.082Z,99029.27
2022-08-17T00:34:11.000Z,99027.94
2022-08-17T00:34:21.058Z,99024.83
2022-08-17T00:34:31.037Z,99027.27
2022-08-17T00:34:41.091Z,99027.25
2022-08-17T00:34:51.062Z,99024.99
2022-08-17T00:35:01.074Z,99025.75
2022-08-17T00:35:10.999Z,99030.69
2022-08-17T00:35:21.036Z,99031.55
2022-08-17T00:35:31.048Z,99027.75
2022-08-17T00:35:41.049Z,99029.33
2022-08-17T00:35:51.097Z,99030.78
2022-08-17T00:36:01.021Z,99028.42
2022-08-17T00:36:11.095Z,99026.47
2022-08-17T00:36:21.098Z,99024.88
2022-08-17T00:36:31.017Z,99027.98
2022-08-17T00:36:41.048Z,99026.98
2022-08-17T00:36:51.129Z,99027.48
2022-08-17T00:37:01.025Z,99027.32
2022-08-17T00:37:11.050Z,99024.86
2022-08-17T00:37:21.093Z,99022.93
2022-08-17T00:37:30.998Z,99023.59
2022-08-17T00:37:41.081Z,99026.37
2022-08-17T00:37:51.098Z,99026.88
2022-08-17T00:38:01.034Z,99026.61
2022-08-17T00:38:11.087Z,99026.88
2022-08-17T00:38:21.052Z,99024.36
2022-08-17T00:38:31.024Z,99028.28
2022-08-17T00:38:41.015Z,99027.97
2022-08-17T00:38:51.130Z,99023.76
2022-08-17T00:39:01.029Z,99020.55
2022-08-17T00:39:11.108Z,99024.77
2022-08-17T00:39:21.076Z,99026.62
2022-08-17T00:39:31.143Z,99023.50
2022-08-17T00:39:41.093Z,99026.70
2022-08-17T00:39:51.127Z,99022.41
2022-08-17T00:40:01.108Z,99021.98
2022-08-17T00:40:11.145Z,99025.09
2022-08-17T00:40:21.053Z,99021.05
2022-08-17T00:40:44.663Z,99024.59
2022-08-17T00:40:44.784Z,99024.58
2022-08-17T00:40:51.837Z,99024.75
2022-08-17T00:41:01.115Z,99023.66
2022-08-17T00:41:11.033Z,99019.52
2022-08-17T00:41:21.005Z,99019.70
2022-08-17T00:41:31.049Z,99022.31
2022-08-17T00:41:42.366Z,99020.70
2022-08-17T00:41:51.040Z,99025.06
2022-08-17T00:42:01.065Z,99020.86
2022-08-17T00:42:11.086Z,99025.33
2022-08-17T00:42:21.010Z,99022.06
2022-08-17T00:42:31.467Z,99019.84
2022-08-17T00:42:41.080Z,99020.00
2022-08-17T00:42:51.224Z,99022.36
2022-08-17T00:43:00.997Z,99023.52
2022-08-17T00:43:11.071Z,99021.91
2022-08-17T00:43:21.080Z,99022.34
2022-08-17T00:43:31.117Z,99024.52
2022-08-17T00:43:41.095Z,99027.19
2022-08-17T00:43:51.037Z,99025.59
2022-08-17T00:44:01.075Z,99025.84
2022-08-17T00:44:11.058Z,99021.98
2022-08-17T00:44:21.107Z,99023.25
2022-08-17T00:44:31.253Z,99025.77
2022-08-17T00:44:41.050Z,99028.02
2022-08-17T00:44:51.041Z,99030.03
2022-08-17T00:45:01.074Z,99022.96
2022-08-17T00:45:11.047Z,99027.02
2022-08-17T00:45:21.049Z,99028.34
2022-08-17T00:45:31.081Z,99026.00
2022-08-17T00:45:41.092Z,99024.75
2022-08-17T00:45:51.021Z,99027.02
2022-08-17T00:46:01.067Z,99026.16
2022-08-17T00:46:11.120Z,99029.53
2022-08-17T00:46:21.013Z,99025.23
2022-08-17T00:46:31.069Z,99026.24
2022-08-17T00:46:41.070Z,99027.66
2022-08-17T00:46:51.066Z,99027.39
2022-08-17T00:47:01.110Z,99028.07
2022-08-17T00:47:11.118Z,99027.12
2022-08-17T00:47:21.047Z,99021.17
2022-08-17T00:47:31.037Z,99025.95
2022-08-17T00:47:41.121Z,99023.44
2022-08-17T00:47:51.051Z,99026.30
2022-08-17T00:48:01.128Z,99025.70
2022-08-17T00:48:11.563Z,99029.00
2022-08-17T00:48:29.662Z,99031.02
2022-08-17T00:48:31.064Z,99027.12
2022-08-17T00:48:41.035Z,99030.17
2022-08-17T00:48:51.013Z,99028.48
2022-08-17T00:49:01.064Z,99029.67
2022-08-17T00:49:11.017Z,99031.25
2022-08-17T00:49:21.043Z,99025.97
2022-08-17T00:49:31.087Z,99028.48
2022-08-17T00:49:41.105Z,99027.48
2022-08-17T00:49:51.045Z,99031.25
2022-08-17T00:50:01.069Z,99027.64
2022-08-17T00:50:11.035Z,99029.49
2022-08-17T00:50:21.129Z,99030.50
2022-08-17T00:50:31.117Z,99029.38
2022-08-17T00:50:41.018Z,99031.17
2022-08-17T00:50:51.018Z,99027.14
2022-08-17T00:51:01.032Z,99022.92
2022-08-17T00:51:11.082Z,99029.22
2022-08-17T00:51:21.070Z,99028.12
2022-08-17T00:51:31.026Z,99029.81
2022-08-17T00:51:41.114Z,99027.96
2022-08-17T00:51:51.023Z,99027.20
2022-08-17T00:52:01.005Z,99028.95
2022-08-17T00:52:12.090Z,99025.75
2022-08-17T00:52:21.014Z,99023.57
2022-08-17T00:52:31.031Z,99027.27
2022-08-17T00:52:41.056Z,99029.98
2022-08-17T00:52:51.319Z,99029.23
2022-08-17T00:53:01.092Z,99028.95
2022-08-17T00:53:11.090Z,99029.23
2022-08-17T00:53:21.059Z,99025.27
2022-08-17T00:53:31.072Z,99028.70
2022-08-17T00:53:41.078Z,99025.25
2022-08-17T00:53:51.096Z,99025.09
2022-08-17T00:54:01.102Z,99022.22
2022-08-17T00:54:11.060Z,99024.42
2022-08-17T00:54:21.089Z,99027.17
2022-08-17T00:54:31.025Z,99026.52
2022-08-17T00:54:42.193Z,99026.59
2022-08-17T00:54:51.091Z,99027.26
2022-08-17T00:55:01.062Z,99027.77
2022-08-17T00:55:11.064Z,99025.89
2022-08-17T00:55:21.016Z,99023.39
2022-08-17T00:55:31.027Z,99027.94
2022-08-17T00:55:41.060Z,99030.77
2022-08-17T00:55:51.047Z,99027.91
2022-08-17T00:56:01.093Z,99027.58
2022-08-17T00:56:11.122Z,99031.29
2022-08-17T00:56:21.058Z,99032.53
2022-08-17T00:56:31.106Z,99030.27
2022-08-17T00:56:41.029Z,99027.25
2022-08-17T00:56:51.049Z,99023.36
2022-08-17T00:57:01.105Z,99024.88
2022-08-17T00:57:11.031Z,99030.92
2022-08-17T00:57:21.067Z,99031.77
2022-08-17T00:57:31.047Z,99030.91
2022-08-17T00:57:41.066Z,99030.84
2022-08-17T00:57:55.066Z,99032.52
2022-08-17T00:58:01.095Z,99032.25
2022-08-17T00:58:11.083Z,99031.91
2022-08-17T00:58:36.377Z,99031.41
2022-08-17T00:58:36.503Z,99033.94
2022-08-17T00:58:41.027Z,99030.83
2022-08-17T00:58:51.126Z,99032.42
2022-08-17T00:59:01.001Z,99030.41
2022-08-17T00:59:11.016Z,99033.26
2022-08-17T00:59:21.091Z,99031.41
2022-08-17T00:59:31.123Z,99030.08
2022-08-17T00:59:41.041Z,99028.54
2022-08-17T01:00:01.743Z,99033.27
2022-08-17T01:00:02.115Z,99029.55
2022-08-17T01:00:11.064Z,99032.26
2022-08-17T01:00:21.019Z,99028.11
2022-08-17T01:00:31.047Z,99032.77
2022-08-17T01:00:41.159Z,99032.09
2022-08-17T01:00:51.084Z,99030.05
2022-08-17T01:01:01.064Z,99031.59
2022-08-17T01:01:11.083Z,99031.08
2022-08-17T01:01:21.610Z,99027.27
2022-08-17T01:01:31.148Z,99031.75
2022-08-17T01:01:41.157Z,99027.78
2022-08-17T01:01:51.008Z,99034.78
2022-08-17T01:02:01.017Z,99030.97
2022-08-17T01:02:11.012Z,99032.31
2022-08-17T01:02:21.115Z,99033.83
2022-08-17T01:02:42.061Z,99028.78
2022-08-17T01:02:42.906Z,99034.61
2022-08-17T01:02:51.048Z,99033.09
2022-08-17T01:03:01.051Z,99029.64
2022-08-17T01:03:11.047Z,99032.74
2022-08-17T01:03:20.999Z,99031.15
2022-08-17T01:03:31.115Z,99029.38
2022-08-17T01:03:41.110Z,99034.59
2022-08-17T01:03:51.023Z,99030.73
2022-08-17T01:04:01.073Z,99028.02
2022-08-17T01:04:11.025Z,99027.78
2022-08-17T01:04:21.057Z,99031.80
2022-08-17T01:04:31.101Z,99029.28
2022-08-17T01:04:41.116Z,99029.53
2022-08-17T01:04:51.109Z,99029.85
2022-08-17T01:05:01.046Z,99031.95
2022-08-17T01:05:11.094Z,99029.37
2022-08-17T01:05:21.031Z,99030.88
2022-08-17T01:05:31.045Z,99030.02
2022-08-17T01:05:42.377Z,99029.94
2022-08-17T01:05:51.085Z,99026.47
2022-08-17T01:06:01.111Z,99028.84
2022-08-17T01:06:11.101Z,99029.67
2022-08-17T01:06:21.045Z,99028.41
2022-08-17T01:06:31.038Z,99027.64
2022-08-17T01:06:41.008Z,99025.95
2022-08-17T01:06:51.062Z,99028.39
2022-08-17T01:07:01.055Z,99029.48
2022-08-17T01:07:11.037Z,99026.22
2022-08-17T01:07:21.061Z,99027.56
2022-08-17T01:07:31.059Z,99024.42
2022-08-17T01:07:41.023Z,99027.11
2022-08-17T01:07:51.177Z,99027.62
2022-08-17T01:08:01.030Z,99023.67
2022-08-17T01:08:11.025Z,99024.44
2022-08-17T01:08:21.064Z,99023.84
2022-08-17T01:08:31.113Z,99027.28
2022-08-17T01:08:41.038Z,99023.42
2022-08-17T01:08:51.109Z,99024.08
2022-08-17T01:09:01.069Z,99021.89
2022-08-17T01:09:11.058Z,99024.08
2022-08-17T01:09:21.121Z,99025.84
2022-08-17T01:09:31.084Z,99025.77
2022-08-17T01:09:41.016Z,99025.25
2022-08-17T01:09:51.127Z,99021.88
2022-08-17T01:10:01.038Z,99019.19
2022-08-17T01:10:58.125Z,99018.77
2022-08-17T01:10:58.657Z,99018.77
2022-08-17T01:10:58.995Z,99020.36
2022-08-17T01:10:59.734Z,99021.71
2022-08-17T01:11:00.335Z,99021.20
2022-08-17T01:11:01.925Z,99022.95
2022-08-17T01:11:11.083Z,99021.94
2022-08-17T01:11:21.083Z,99022.87
2022-08-17T01:11:31.109Z,99024.05
2022-08-17T01:11:41.003Z,99018.08
2022-08-17T01:11:51.113Z,99019.34
2022-08-17T01:12:01.024Z,99017.30
2022-08-17T01:12:11.064Z,99018.32
2022-08-17T01:12:21.001Z,99018.06
2022-08-17T01:12:31.089Z,99020.50
2022-08-17T01:12:41.159Z,99022.02
2022-08-17T01:12:51.133Z,99021.73
2022-08-17T01:13:01.006Z,99020.73
2022-08-17T01:13:11.082Z,99020.06
2022-08-17T01:13:21.136Z,99021.16
2022-08-17T01:13:30.998Z,99022.92
2022-08-17T01:13:41.792Z,99021.48
2022-08-17T01:13:51.050Z,99022.98
2022-08-17T01:14:01.071Z,99021.97
2022-08-17T01:14:11.102Z,99022.56
2022-08-17T01:14:21.090Z,99021.14
2022-08-17T01:14:31.048Z,99022.08
2022-08-17T01:14:41.078Z,99022.06
2022-08-17T01:14:51.082Z,99024.83
2022-08-17T01:15:01.125Z,99020.41
2022-08-17T01:15:11.086Z,99022.32
2022-08-17T01:15:21.014Z,99024.08
2022-08-17T01:15:31.112Z,99025.09
2022-08-17T01:15:41.055Z,99024.25
2022-08-17T01:15:51.099Z,99022.12
2022-08-17T01:16:01.003Z,99025.84
2022-08-17T01:16:11.033Z,99024.84
2022-08-17T01:16:21.093Z,99027.02
2022-08-17T01:16:31.026Z,99027.08
2022-08-17T01:16:41.075Z,99028.20
2022-08-17T01:16:51.044Z,99028.93
2022-08-17T01:17:01.037Z,99028.18
2022-08-17T01:17:11.019Z,99028.84
2022-08-17T01:17:21.013Z,99028.84
2022-08-17T01:17:31.125Z,99030.36
2022-08-17T01:17:41.048Z,99032.55
2022-08-17T01:17:51.015Z,99031.45
2022-08-17T01:18:01.066Z,99030.84
2022-08-17T01:18:11.069Z,99033.14
2022-08-17T01:18:21.045Z,99033.89
2022-08-17T01:18:31.078Z,99033.14
2022-08-17T01:18:41.069Z,99034.14
2022-08-17T01:18:51.009Z,99032.97
2022-08-17T01:19:01.114Z,99031.52
2022-08-17T01:19:11.047Z,99033.03
2022-08-17T01:19:21.065Z,99034.71
2022-08-17T01:19:31.113Z,99034.94
2022-08-17T01:19:41.085Z,99033.88
2022-08-17T01:19:51.119Z,99031.25
2022-08-17T01:20:01.101Z,99031.84
2022-08-17T01:20:11.038Z,99031.34
2022-08-17T01:20:21.016Z,99031.42
2022-08-17T01:20:31.071Z,99033.33
2022-08-17T01:20:47.817Z,99031.65
2022-08-17T01:20:51.123Z,99034.50
2022-08-17T01:21:01.125Z,99035.68
2022-08-17T01:21:11.009Z,99033.92
2022-08-17T01:21:21.003Z,99035.34
2022-08-17T01:21:31.090Z,99033.33
2022-08-17T01:21:41.107Z,99033.33
2022-08-17T01:21:51.087Z,99027.80
2022-08-17T01:22:01.038Z,99032.83
2022-08-17T01:22:11.002Z,99033.08
2022-08-17T01:22:21.007Z,99032.91
2022-08-17T01:22:31.114Z,99031.06
2022-08-17T01:22:41.041Z,99030.56
2022-08-17T01:22:51.205Z,99031.23
2022-08-17T01:23:01.043Z,99029.98
2022-08-17T01:23:11.007Z,99034.01
2022-08-17T01:23:21.356Z,99030.05
2022-08-17T01:23:31.089Z,99033.83
2022-08-17T01:23:41.029Z,99033.92
2022-08-17T01:23:51.122Z,99029.48
2022-08-17T01:24:01.052Z,99025.95
2022-08-17T01:24:11.127Z,99032.66
2022-08-17T01:24:21.116Z,99034.17
2022-08-17T01:24:31.052Z,99035.00
2022-08-17T01:24:41.045Z,99032.16
2022-08-17T01:24:51.031Z,99031.97
2022-08-17T01:25:01.098Z,99028.09
2022-08-17T01:25:11.120Z,99033.34
2022-08-17T01:25:21.061Z,99030.72
2022-08-17T01:25:31.011Z,99038.52
2022-08-17T01:25:41.022Z,99029.78
2022-08-17T01:25:51.008Z,99027.25
2022-08-17T01:26:01.119Z,99029.78
2022-08-17T01:26:11.094Z,99028.09
2022-08-17T01:26:21.048Z,99027.92
2022-08-17T01:26:31.081Z,99029.19
2022-08-17T01:26:41.087Z,99025.08
2022-08-17T01:26:50.999Z,99025.23
2022-08-17T01:27:01.110Z,99029.84
2022-08-17T01:27:11.054Z,99029.84
2022-08-17T01:27:21.060Z,99029.84
2022-08-17T01:27:31.021Z,99030.11
2022-08-17T01:27:41.019Z,99027.91
2022-08-17T01:27:51.009Z,99027.57
2022-08-17T01:28:01.047Z,99027.06
2022-08-17T01:28:11.092Z,99028.50
2022-08-17T01:28:36.358Z,99027.09
2022-08-17T01:28:36.457Z,99023.97
2022-08-17T01:28:53.414Z,99025.22
2022-08-17T01:28:54.242Z,99030.26
2022-08-17T01:29:01.036Z,99023.88
2022-08-17T01:29:11.017Z,99023.02
2022-08-17T01:29:21.124Z,99023.69
2022-08-17T01:29:31.087Z,99024.88
2022-08-17T01:29:41.036Z,99027.57
2022-08-17T01:29:51.123Z,99025.72
2022-08-17T01:30:01.019Z,99029.16
2022-08-17T01:30:56.763Z,99030.68
2022-08-17T01:30:56.994Z,99028.41
2022-08-17T01:30:57.921Z,99029.84
2022-08-17T01:30:58.299Z,99026.20
2022-08-17T01:30:58.878Z,99025.55
2022-08-17T01:31:01.094Z,99030.73
2022-08-17T01:31:11.030Z,99031.08
2022-08-17T01:31:21.108Z,99031.58
2022-08-17T01:31:31.119Z,99033.77
2022-08-17T01:31:40.998Z,99032.26
2022-08-17T01:31:51.013Z,99033.77
2022-08-17T01:32:01.105Z,99032.42
2022-08-17T01:32:11.049Z,99032.57
2022-08-17T01:32:21.054Z,99033.44
2022-08-17T01:32:31.085Z,99030.05
2022-08-17T01:32:41.009Z,99031.14
2022-08-17T01:32:51.239Z,99030.14
2022-08-17T01:33:01.108Z,99030.55
2022-08-17T01:33:11.097Z,99033.16
2022-08-17T01:33:21.037Z,99031.21
2022-08-17T01:33:30.999Z,99034.59
2022-08-17T01:33:41.046Z,99035.07
2022-08-17T01:33:51.013Z,99036.36
2022-08-17T01:34:01.872Z,99034.40
2022-08-17T01:34:11.131Z,99031.38
2022-08-17T01:34:21.089Z,99031.55
2022-08-17T01:34:42.368Z,99034.34
2022-08-17T01:34:43.610Z,99026.77
2022-08-17T01:34:51.083Z,99035.16
2022-08-17T01:35:01.068Z,99035.58
2022-08-17T01:35:11.115Z,99035.58
2022-08-17T01:35:21.113Z,99035.58
2022-08-17T01:35:31.123Z,99037.25
2022-08-17T01:35:41.014Z,99035.33
2022-08-17T01:35:51.127Z,99036.26
2022-08-17T01:36:01.006Z,99036.42
2022-08-17T01:36:11.100Z,99034.41
2022-08-17T01:36:21.027Z,99034.63
2022-08-17T01:36:31.129Z,99034.75
2022-08-17T01:36:41.077Z,99030.69
2022-08-17T01:36:51.074Z,99029.59
2022-08-17T01:37:01.077Z,99034.22
2022-08-17T01:37:11.114Z,99032.38
2022-08-17T01:37:21.006Z,99034.39
2022-08-17T01:37:31.121Z,99030.61
2022-08-17T01:37:41.045Z,99029.34
2022-08-17T01:37:51.108Z,99035.56
2022-08-17T01:38:01.075Z,99035.39
2022-08-17T01:38:11.091Z,99032.69
2022-08-17T01:38:27.242Z,99032.78
2022-08-17T01:38:31.104Z,99036.32
2022-08-17T01:38:41.002Z,99035.39
2022-08-17T01:38:51.011Z,99032.94
2022-08-17T01:39:01.127Z,99035.20
2022-08-17T01:39:11.122Z,99032.77
2022-08-17T02:06:47.125Z,99038.72
2022-08-17T02:06:53.147Z,99037.62
2022-08-17T02:06:54.555Z,99033.25
2022-08-17T02:06:54.881Z,99033.75
2022-08-17T02:06:55.093Z,99036.69
2022-08-17T02:06:55.302Z,99035.15
2022-08-17T02:06:55.521Z,99038.61
2022-08-17T02:07:02.920Z,99032.79
2022-08-17T02:07:12.917Z,99033.40
2022-08-17T02:07:27.074Z,99035.35
2022-08-17T02:07:32.871Z,99037.95
2022-08-17T02:07:59.675Z,99037.72
2022-08-17T02:08:00.302Z,99035.62
2022-08-17T02:08:02.960Z,99035.79
2022-08-17T02:08:20.099Z,99038.55
2022-08-17T02:08:37.096Z,99039.75
2022-08-17T02:08:39.258Z,99033.69
2022-08-17T02:09:02.499Z,99038.77
2022-08-17T02:09:02.810Z,99037.23
2022-08-17T02:09:03.843Z,99040.78
2022-08-17T02:09:16.820Z,99038.09
2022-08-17T02:09:25.264Z,99034.58
2022-08-17T02:09:32.935Z,99037.17
2022-08-17T02:09:42.917Z,99037.01
2022-08-17T02:09:52.947Z,99035.36
2022-08-17T02:10:02.862Z,99033.56
2022-08-17T02:10:20.307Z,99033.98
2022-08-17T02:10:22.916Z,99037.95
2022-08-17T02:10:34.028Z,99036.92
2022-08-17T02:10:46.644Z,99037.87
2022-08-17T02:10:52.911Z,99037.78
2022-08-17T02:11:02.862Z,99037.62
2022-08-17T02:11:12.838Z,99039.31
2022-08-17T02:11:22.868Z,99042.67
2022-08-17T02:11:32.902Z,99035.94
2022-08-17T02:11:42.963Z,99039.70
2022-08-17T02:11:52.879Z,99034.85
2022-08-17T02:12:38.154Z,99038.70
2022-08-17T02:12:38.767Z,99037.88
2022-08-17T02:12:39.039Z,99043.06
2022-08-17T02:12:39.077Z,99039.12
2022-08-17T02:12:42.931Z,99041.14
2022-08-17T02:12:53.076Z,99039.94
2022-08-17T02:13:02.893Z,99042.15
2022-08-17T02:13:12.965Z,99039.89
2022-08-17T02:13:22.837Z,99041.47
2022-08-17T02:13:32.841Z,99041.73
2022-08-17T02:13:42.942Z,99039.77
2022-08-17T02:13:57.907Z,99040.30
2022-08-17T02:14:03.996Z,99042.91
2022-08-17T02:14:12.955Z,99043.83
2022-08-17T02:14:22.858Z,99039.77
2022-08-17T02:14:32.908Z,99037.59
2022-08-17T02:14:42.849Z,99040.80
2022-08-17T02:14:52.854Z,99041.81
2022-08-17T02:15:02.941Z,99043.99
2022-08-17T02:15:12.938Z,99042.81
2022-08-17T02:15:22.838Z,99042.66
2022-08-17T02:15:32.892Z,99040.72
2022-08-17T02:15:42.934Z,99041.06
2022-08-17T02:15:52.927Z,99041.73
2022-08-17T02:16:02.881Z,99043.99
2022-08-17T02:16:12.854Z,99041.90
2022-08-17T02:16:22.886Z,99044.30
2022-08-17T02:16:37.313Z,99044.30
2022-08-17T02:16:42.866Z,99042.45
2022-08-17T02:16:52.883Z,99045.81
2022-08-17T02:17:02.913Z,99042.80
2022-08-17T02:17:12.941Z,99044.49
2022-08-17T02:17:22.944Z,99044.81
2022-08-17T02:17:32.850Z,99045.98
2022-08-17T02:17:42.887Z,99040.61
2022-08-17T02:17:54.675Z,99038.60
2022-08-17T02:18:02.886Z,99040.45
2022-08-17T02:18:12.918Z,99039.95
2022-08-17T02:18:22.855Z,99042.46
2022-08-17T02:18:32.881Z,99044.98
2022-08-17T02:18:42.918Z,99041.34
2022-08-17T02:18:52.935Z,99041.44
2022-08-17T02:19:02.896Z,99038.08
2022-08-17T02:19:12.994Z,99042.97
2022-08-17T02:19:22.927Z,99041.68
2022-08-17T02:19:32.949Z,99039.67
2022-08-17T02:19:42.895Z,99038.72
2022-08-17T02:19:52.950Z,99043.19
2022-08-17T02:20:02.837Z,99044.28
2022-08-17T02:20:12.834Z,99039.75
2022-08-17T02:20:42.032Z,99039.59
2022-08-17T02:20:42.379Z,99039.84
2022-08-17T02:20:43.021Z,99042.78
2022-08-17T02:20:52.852Z,99035.95
2022-08-17T02:21:02.899Z,99044.70
2022-08-17T02:21:12.854Z,99042.19
2022-08-17T02:21:22.870Z,99041.84
2022-08-17T02:21:32.892Z,99039.00
2022-08-17T02:21:42.967Z,99041.69
2022-08-17T02:21:52.897Z,99040.93
2022-08-17T02:22:02.951Z,99038.16
2022-08-17T02:22:12.859Z,99041.27
2022-08-17T02:22:22.844Z,99039.92
2022-08-17T02:22:32.892Z,99034.98
2022-08-17T02:22:42.993Z,99041.19
2022-08-17T02:22:52.980Z,99039.42
2022-08-17T02:23:02.848Z,99035.48
2022-08-17T02:23:12.862Z,99036.23
2022-08-17T02:23:22.868Z,99034.14
2022-08-17T02:23:32.964Z,99035.48
2022-08-17T02:23:42.887Z,99035.56
2022-08-17T02:23:52.924Z,99037.06